sensor_id;sensor_type;location;lat;lon;timestamp;P1;durP1;ratioP1;P2;durP2;ratioP2
17658;SDS011;8948;51.534;8.262;2023-01-24T00:02:13;7.80;;;5.73;;
17658;SDS011;8948;51.534;8.262;2023-01-24T00:07:13;8.80;;;5.90;;
17658;SDS011;8948;51.534;8.262;2023-01-24T00:12:14;8.80;;;5.77;;
17658;SDS011;8948;51.534;8.262;2023-01-24T00:17:14;7.93;;;5.67;;
17658;SDS011;8948;51.534;8.262;2023-01-24T00:22:15;10.43;;;6.43;;
17658;SDS011;8948;51.534;8.262;2023-01-24T00:27:16;9.23;;;6.40;;
17658;SDS011;8948;51.534;8.262;2023-01-24T00:32:17;9.77;;;6.60;;
17658;SDS011;8948;51.534;8.262;2023-01-24T00:37:18;10.00;;;6.50;;
17658;SDS011;8948;51.534;8.262;2023-01-24T00:42:18;10.77;;;6.23;;
17658;SDS011;8948;51.534;8.262;2023-01-24T00:47:19;12.90;;;6.97;;
17658;SDS011;8948;51.534;8.262;2023-01-24T00:52:19;10.23;;;6.63;;
17658;SDS011;8948;51.534;8.262;2023-01-24T00:57:20;10.67;;;6.97;;
17658;SDS011;8948;51.534;8.262;2023-01-24T01:02:22;9.37;;;6.33;;
17658;SDS011;8948;51.534;8.262;2023-01-24T01:07:22;10.07;;;6.30;;
17658;SDS011;8948;51.534;8.262;2023-01-24T01:12:24;10.93;;;6.23;;
17658;SDS011;8948;51.534;8.262;2023-01-24T01:17:26;9.17;;;6.17;;
17658;SDS011;8948;51.534;8.262;2023-01-24T01:22:26;7.70;;;5.67;;
17658;SDS011;8948;51.534;8.262;2023-01-24T01:27:27;9.47;;;6.37;;
17658;SDS011;8948;51.534;8.262;2023-01-24T01:32:27;11.40;;;7.03;;
17658;SDS011;8948;51.534;8.262;2023-01-24T01:37:28;10.40;;;6.73;;
17658;SDS011;8948;51.534;8.262;2023-01-24T01:53:28;13.30;;;8.03;;
17658;SDS011;8948;51.534;8.262;2023-01-24T01:58:34;12.70;;;8.53;;
17658;SDS011;8948;51.534;8.262;2023-01-24T02:03:36;12.60;;;8.30;;
17658;SDS011;8948;51.534;8.262;2023-01-24T02:08:42;13.23;;;8.27;;
17658;SDS011;8948;51.534;8.262;2023-01-24T02:13:44;15.07;;;9.47;;
17658;SDS011;8948;51.534;8.262;2023-01-24T02:18:46;13.07;;;8.47;;
17658;SDS011;8948;51.534;8.262;2023-01-24T02:29:19;15.50;;;10.13;;
17658;SDS011;8948;51.534;8.262;2023-01-24T02:34:20;14.00;;;9.13;;
17658;SDS011;8948;51.534;8.262;2023-01-24T02:39:23;15.53;;;9.80;;
17658;SDS011;8948;51.534;8.262;2023-01-24T02:49:37;14.57;;;9.03;;
17658;SDS011;8948;51.534;8.262;2023-01-24T02:54:38;14.40;;;9.07;;
17658;SDS011;8948;51.534;8.262;2023-01-24T02:59:39;13.27;;;8.30;;
17658;SDS011;8948;51.534;8.262;2023-01-24T03:04:39;12.27;;;8.33;;
17658;SDS011;8948;51.534;8.262;2023-01-24T03:09:40;12.70;;;8.63;;
17658;SDS011;8948;51.534;8.262;2023-01-24T03:14:46;15.23;;;8.53;;
17658;SDS011;8948;51.534;8.262;2023-01-24T03:20:05;13.77;;;8.90;;
17658;SDS011;8948;51.534;8.262;2023-01-24T03:25:24;12.27;;;7.87;;
17658;SDS011;8948;51.534;8.262;2023-01-24T03:30:43;13.10;;;8.17;;
17658;SDS011;8948;51.534;8.262;2023-01-24T03:36:02;13.83;;;8.00;;
17658;SDS011;8948;51.534;8.262;2023-01-24T03:41:06;14.40;;;9.87;;
17658;SDS011;8948;51.534;8.262;2023-01-24T03:46:06;19.70;;;9.53;;
17658;SDS011;8948;51.534;8.262;2023-01-24T03:51:08;14.60;;;9.10;;
17658;SDS011;8948;51.534;8.262;2023-01-24T03:56:27;13.90;;;9.47;;
17658;SDS011;8948;51.534;8.262;2023-01-24T04:01:27;12.37;;;8.40;;
17658;SDS011;8948;51.534;8.262;2023-01-24T04:06:29;15.47;;;9.83;;
17658;SDS011;8948;51.534;8.262;2023-01-24T04:11:29;14.50;;;8.97;;
17658;SDS011;8948;51.534;8.262;2023-01-24T04:16:30;14.67;;;9.60;;
17658;SDS011;8948;51.534;8.262;2023-01-24T04:21:30;15.60;;;8.67;;
17658;SDS011;8948;51.534;8.262;2023-01-24T04:26:31;14.57;;;9.50;;
17658;SDS011;8948;51.534;8.262;2023-01-24T04:31:31;11.93;;;8.47;;
17658;SDS011;8948;51.534;8.262;2023-01-24T04:36:32;12.10;;;8.30;;
17658;SDS011;8948;51.534;8.262;2023-01-24T04:41:33;11.77;;;8.60;;
17658;SDS011;8948;51.534;8.262;2023-01-24T04:46:33;11.80;;;7.70;;
17658;SDS011;8948;51.534;8.262;2023-01-24T04:51:34;12.47;;;8.40;;
17658;SDS011;8948;51.534;8.262;2023-01-24T04:56:34;12.50;;;8.23;;
17658;SDS011;8948;51.534;8.262;2023-01-24T05:01:35;14.40;;;7.87;;
17658;SDS011;8948;51.534;8.262;2023-01-24T05:06:36;10.73;;;7.27;;
17658;SDS011;8948;51.534;8.262;2023-01-24T05:11:36;14.13;;;9.50;;
17658;SDS011;8948;51.534;8.262;2023-01-24T05:16:38;13.87;;;8.57;;
17658;SDS011;8948;51.534;8.262;2023-01-24T05:21:38;13.37;;;8.97;;
17658;SDS011;8948;51.534;8.262;2023-01-24T05:26:39;11.30;;;7.10;;
17658;SDS011;8948;51.534;8.262;2023-01-24T05:31:39;10.67;;;7.43;;
17658;SDS011;8948;51.534;8.262;2023-01-24T05:36:40;11.80;;;8.07;;
17658;SDS011;8948;51.534;8.262;2023-01-24T05:41:40;12.20;;;8.40;;
17658;SDS011;8948;51.534;8.262;2023-01-24T05:46:41;12.97;;;8.70;;
17658;SDS011;8948;51.534;8.262;2023-01-24T05:51:43;13.67;;;8.80;;
17658;SDS011;8948;51.534;8.262;2023-01-24T05:56:44;13.70;;;9.33;;
17658;SDS011;8948;51.534;8.262;2023-01-24T06:01:44;10.97;;;7.87;;
17658;SDS011;8948;51.534;8.262;2023-01-24T06:06:45;11.23;;;8.23;;
17658;SDS011;8948;51.534;8.262;2023-01-24T06:11:45;12.33;;;8.27;;
17658;SDS011;8948;51.534;8.262;2023-01-24T06:16:46;16.00;;;9.10;;
17658;SDS011;8948;51.534;8.262;2023-01-24T06:21:48;14.47;;;9.97;;
17658;SDS011;8948;51.534;8.262;2023-01-24T06:26:55;12.20;;;9.03;;
17658;SDS011;8948;51.534;8.262;2023-01-24T06:37:15;13.90;;;9.60;;
17658;SDS011;8948;51.534;8.262;2023-01-24T06:42:30;14.43;;;9.63;;
17658;SDS011;8948;51.534;8.262;2023-01-24T06:47:31;12.63;;;9.07;;
17658;SDS011;8948;51.534;8.262;2023-01-24T06:52:32;11.93;;;7.80;;
17658;SDS011;8948;51.534;8.262;2023-01-24T06:57:32;10.90;;;8.00;;
17658;SDS011;8948;51.534;8.262;2023-01-24T07:02:33;10.57;;;7.70;;
17658;SDS011;8948;51.534;8.262;2023-01-24T07:07:33;10.77;;;7.70;;
17658;SDS011;8948;51.534;8.262;2023-01-24T07:12:34;10.50;;;7.73;;
17658;SDS011;8948;51.534;8.262;2023-01-24T07:17:35;13.13;;;9.27;;
17658;SDS011;8948;51.534;8.262;2023-01-24T07:22:36;13.13;;;9.20;;
17658;SDS011;8948;51.534;8.262;2023-01-24T07:27:38;15.03;;;9.40;;
17658;SDS011;8948;51.534;8.262;2023-01-24T07:32:39;12.27;;;8.43;;
17658;SDS011;8948;51.534;8.262;2023-01-24T07:37:39;11.43;;;8.50;;
17658;SDS011;8948;51.534;8.262;2023-01-24T07:42:40;12.13;;;8.93;;
17658;SDS011;8948;51.534;8.262;2023-01-24T07:47:40;13.00;;;9.17;;
17658;SDS011;8948;51.534;8.262;2023-01-24T07:52:41;13.17;;;9.20;;
17658;SDS011;8948;51.534;8.262;2023-01-24T07:57:41;11.93;;;8.73;;
17658;SDS011;8948;51.534;8.262;2023-01-24T08:02:42;13.00;;;9.17;;
17658;SDS011;8948;51.534;8.262;2023-01-24T08:07:44;13.57;;;8.90;;
17658;SDS011;8948;51.534;8.262;2023-01-24T08:12:44;13.63;;;9.33;;
17658;SDS011;8948;51.534;8.262;2023-01-24T08:17:45;13.87;;;10.23;;
17658;SDS011;8948;51.534;8.262;2023-01-24T08:22:46;11.53;;;8.87;;
17658;SDS011;8948;51.534;8.262;2023-01-24T08:27:46;10.50;;;7.53;;
17658;SDS011;8948;51.534;8.262;2023-01-24T08:32:47;13.43;;;8.30;;
17658;SDS011;8948;51.534;8.262;2023-01-24T08:37:47;11.07;;;8.20;;
17658;SDS011;8948;51.534;8.262;2023-01-24T08:42:48;12.30;;;9.27;;
17658;SDS011;8948;51.534;8.262;2023-01-24T08:47:52;11.37;;;8.57;;
17658;SDS011;8948;51.534;8.262;2023-01-24T08:52:54;11.97;;;7.57;;
17658;SDS011;8948;51.534;8.262;2023-01-24T08:57:59;9.33;;;7.13;;
17658;SDS011;8948;51.534;8.262;2023-01-24T09:03:01;9.90;;;7.57;;
17658;SDS011;8948;51.534;8.262;2023-01-24T09:08:01;11.33;;;7.93;;
17658;SDS011;8948;51.534;8.262;2023-01-24T09:13:02;9.93;;;7.53;;
17658;SDS011;8948;51.534;8.262;2023-01-24T09:18:04;9.43;;;6.80;;
17658;SDS011;8948;51.534;8.262;2023-01-24T09:23:08;8.93;;;6.63;;
17658;SDS011;8948;51.534;8.262;2023-01-24T09:28:09;10.50;;;7.23;;
17658;SDS011;8948;51.534;8.262;2023-01-24T09:33:10;10.53;;;7.37;;
17658;SDS011;8948;51.534;8.262;2023-01-24T09:38:10;9.87;;;6.97;;
17658;SDS011;8948;51.534;8.262;2023-01-24T09:43:15;9.90;;;7.17;;
17658;SDS011;8948;51.534;8.262;2023-01-24T09:48:40;11.17;;;7.60;;
17658;SDS011;8948;51.534;8.262;2023-01-24T09:53:43;9.67;;;6.97;;
17658;SDS011;8948;51.534;8.262;2023-01-24T09:58:45;9.87;;;7.00;;
17658;SDS011;8948;51.534;8.262;2023-01-24T10:03:58;13.77;;;6.67;;
17658;SDS011;8948;51.534;8.262;2023-01-24T10:09:02;9.93;;;6.80;;
17658;SDS011;8948;51.534;8.262;2023-01-24T10:25:18;9.80;;;6.83;;
17658;SDS011;8948;51.534;8.262;2023-01-24T10:31:25;8.47;;;6.33;;
17658;SDS011;8948;51.534;8.262;2023-01-24T10:36:34;8.50;;;6.60;;
17658;SDS011;8948;51.534;8.262;2023-01-24T10:41:50;9.07;;;6.53;;
17658;SDS011;8948;51.534;8.262;2023-01-24T10:47:04;10.07;;;6.93;;
17658;SDS011;8948;51.534;8.262;2023-01-24T11:02:37;8.53;;;6.53;;
17658;SDS011;8948;51.534;8.262;2023-01-24T11:07:38;9.20;;;6.87;;
17658;SDS011;8948;51.534;8.262;2023-01-24T11:12:47;8.67;;;6.60;;
17658;SDS011;8948;51.534;8.262;2023-01-24T11:17:59;8.73;;;6.10;;
17658;SDS011;8948;51.534;8.262;2023-01-24T11:23:17;9.20;;;6.67;;
17658;SDS011;8948;51.534;8.262;2023-01-24T11:28:24;7.97;;;6.07;;
17658;SDS011;8948;51.534;8.262;2023-01-24T11:38:40;7.03;;;5.37;;
17658;SDS011;8948;51.534;8.262;2023-01-24T12:05:04;7.17;;;5.77;;
17658;SDS011;8948;51.534;8.262;2023-01-24T12:10:15;8.00;;;5.50;;
17658;SDS011;8948;51.534;8.262;2023-01-24T12:26:01;8.40;;;6.83;;
17658;SDS011;8948;51.534;8.262;2023-01-24T12:31:26;9.00;;;6.27;;
17658;SDS011;8948;51.534;8.262;2023-01-24T12:36:35;10.07;;;6.60;;
17658;SDS011;8948;51.534;8.262;2023-01-24T12:41:44;9.03;;;6.53;;
17658;SDS011;8948;51.534;8.262;2023-01-24T12:52:23;8.40;;;6.03;;
17658;SDS011;8948;51.534;8.262;2023-01-24T12:57:45;10.60;;;6.73;;
17658;SDS011;8948;51.534;8.262;2023-01-24T13:35:16;11.70;;;7.77;;
17658;SDS011;8948;51.534;8.262;2023-01-24T13:40:24;13.03;;;8.60;;
17658;SDS011;8948;51.534;8.262;2023-01-24T13:50:41;15.10;;;7.50;;
17658;SDS011;8948;51.534;8.262;2023-01-24T14:00:46;13.60;;;10.13;;
17658;SDS011;8948;51.534;8.262;2023-01-24T14:06:11;10.30;;;7.67;;
17658;SDS011;8948;51.534;8.262;2023-01-24T14:11:15;17.27;;;10.23;;
17658;SDS011;8948;51.534;8.262;2023-01-24T14:21:33;11.67;;;8.53;;
17658;SDS011;8948;51.534;8.262;2023-01-24T14:26:56;10.90;;;8.03;;
17658;SDS011;8948;51.534;8.262;2023-01-24T14:32:19;10.53;;;7.93;;
17658;SDS011;8948;51.534;8.262;2023-01-24T14:37:39;10.23;;;7.97;;
17658;SDS011;8948;51.534;8.262;2023-01-24T14:42:39;11.77;;;8.17;;
17658;SDS011;8948;51.534;8.262;2023-01-24T14:47:40;11.10;;;7.83;;
17658;SDS011;8948;51.534;8.262;2023-01-24T14:52:45;12.47;;;9.07;;
17658;SDS011;8948;51.534;8.262;2023-01-24T14:57:46;11.80;;;8.73;;
17658;SDS011;8948;51.534;8.262;2023-01-24T15:07:53;12.03;;;8.60;;
17658;SDS011;8948;51.534;8.262;2023-01-24T15:12:55;14.77;;;9.33;;
17658;SDS011;8948;51.534;8.262;2023-01-24T15:18:00;11.47;;;8.47;;
17658;SDS011;8948;51.534;8.262;2023-01-24T15:23:05;12.20;;;8.83;;
17658;SDS011;8948;51.534;8.262;2023-01-24T15:28:26;10.57;;;8.30;;
17658;SDS011;8948;51.534;8.262;2023-01-24T15:33:39;13.63;;;9.47;;
17658;SDS011;8948;51.534;8.262;2023-01-24T15:38:41;15.27;;;10.43;;
17658;SDS011;8948;51.534;8.262;2023-01-24T15:44:04;16.53;;;10.90;;
17658;SDS011;8948;51.534;8.262;2023-01-24T15:49:28;23.33;;;12.30;;
17658;SDS011;8948;51.534;8.262;2023-01-24T15:54:30;18.83;;;13.37;;
17658;SDS011;8948;51.534;8.262;2023-01-24T15:59:31;16.77;;;11.67;;
17658;SDS011;8948;51.534;8.262;2023-01-24T16:04:32;15.77;;;11.03;;
17658;SDS011;8948;51.534;8.262;2023-01-24T16:09:34;18.40;;;12.13;;
17658;SDS011;8948;51.534;8.262;2023-01-24T16:14:35;17.40;;;11.20;;
17658;SDS011;8948;51.534;8.262;2023-01-24T16:19:36;17.07;;;12.07;;
17658;SDS011;8948;51.534;8.262;2023-01-24T16:24:36;19.13;;;11.80;;
17658;SDS011;8948;51.534;8.262;2023-01-24T16:29:37;15.47;;;11.17;;
17658;SDS011;8948;51.534;8.262;2023-01-24T16:34:38;17.00;;;10.33;;
17658;SDS011;8948;51.534;8.262;2023-01-24T16:39:38;15.80;;;11.30;;
17658;SDS011;8948;51.534;8.262;2023-01-24T16:44:40;18.37;;;12.57;;
17658;SDS011;8948;51.534;8.262;2023-01-24T16:49:41;19.23;;;11.13;;
17658;SDS011;8948;51.534;8.262;2023-01-24T16:54:42;16.27;;;11.13;;
17658;SDS011;8948;51.534;8.262;2023-01-24T16:59:42;16.93;;;10.30;;
17658;SDS011;8948;51.534;8.262;2023-01-24T17:04:44;15.63;;;11.20;;
17658;SDS011;8948;51.534;8.262;2023-01-24T17:09:47;21.03;;;12.97;;
17658;SDS011;8948;51.534;8.262;2023-01-24T17:14:47;24.60;;;13.90;;
17658;SDS011;8948;51.534;8.262;2023-01-24T17:19:48;21.63;;;13.20;;
17658;SDS011;8948;51.534;8.262;2023-01-24T17:24:48;22.93;;;14.10;;
17658;SDS011;8948;51.534;8.262;2023-01-24T17:29:49;21.23;;;13.63;;
17658;SDS011;8948;51.534;8.262;2023-01-24T17:34:49;21.20;;;13.50;;
17658;SDS011;8948;51.534;8.262;2023-01-24T17:39:50;17.53;;;11.30;;
17658;SDS011;8948;51.534;8.262;2023-01-24T17:44:51;19.03;;;12.77;;
17658;SDS011;8948;51.534;8.262;2023-01-24T17:49:51;19.43;;;11.33;;
17658;SDS011;8948;51.534;8.262;2023-01-24T17:54:52;19.67;;;11.83;;
17658;SDS011;8948;51.534;8.262;2023-01-24T17:59:52;21.60;;;14.00;;
17658;SDS011;8948;51.534;8.262;2023-01-24T18:04:53;27.60;;;16.50;;
17658;SDS011;8948;51.534;8.262;2023-01-24T18:09:54;25.13;;;15.10;;
17658;SDS011;8948;51.534;8.262;2023-01-24T18:14:54;28.23;;;15.20;;
17658;SDS011;8948;51.534;8.262;2023-01-24T18:19:55;21.27;;;12.77;;
17658;SDS011;8948;51.534;8.262;2023-01-24T18:24:55;21.83;;;13.03;;
17658;SDS011;8948;51.534;8.262;2023-01-24T18:29:56;21.80;;;14.17;;
17658;SDS011;8948;51.534;8.262;2023-01-24T18:34:56;25.93;;;15.07;;
17658;SDS011;8948;51.534;8.262;2023-01-24T18:39:57;19.57;;;12.23;;
17658;SDS011;8948;51.534;8.262;2023-01-24T18:44:58;22.80;;;13.23;;
17658;SDS011;8948;51.534;8.262;2023-01-24T18:49:58;22.40;;;13.77;;
17658;SDS011;8948;51.534;8.262;2023-01-24T18:54:59;24.07;;;14.10;;
17658;SDS011;8948;51.534;8.262;2023-01-24T18:59:59;22.03;;;13.67;;
17658;SDS011;8948;51.534;8.262;2023-01-24T19:05:00;26.07;;;15.40;;
17658;SDS011;8948;51.534;8.262;2023-01-24T19:10:05;22.83;;;13.03;;
17658;SDS011;8948;51.534;8.262;2023-01-24T19:15:06;23.87;;;14.90;;
17658;SDS011;8948;51.534;8.262;2023-01-24T19:20:08;23.03;;;13.70;;
17658;SDS011;8948;51.534;8.262;2023-01-24T19:25:09;27.53;;;14.60;;
17658;SDS011;8948;51.534;8.262;2023-01-24T19:30:11;24.13;;;14.07;;
17658;SDS011;8948;51.534;8.262;2023-01-24T19:35:12;25.77;;;14.90;;
17658;SDS011;8948;51.534;8.262;2023-01-24T19:40:12;24.83;;;15.00;;
17658;SDS011;8948;51.534;8.262;2023-01-24T19:45:13;22.70;;;14.03;;
17658;SDS011;8948;51.534;8.262;2023-01-24T19:50:15;23.23;;;14.37;;
17658;SDS011;8948;51.534;8.262;2023-01-24T19:55:16;23.37;;;14.40;;
17658;SDS011;8948;51.534;8.262;2023-01-24T20:00:17;20.60;;;12.70;;
17658;SDS011;8948;51.534;8.262;2023-01-24T20:05:17;21.07;;;13.40;;
17658;SDS011;8948;51.534;8.262;2023-01-24T20:10:18;25.17;;;13.93;;
17658;SDS011;8948;51.534;8.262;2023-01-24T20:15:19;26.60;;;15.07;;
17658;SDS011;8948;51.534;8.262;2023-01-24T20:20:22;25.57;;;14.70;;
17658;SDS011;8948;51.534;8.262;2023-01-24T20:25:23;20.13;;;13.37;;
17658;SDS011;8948;51.534;8.262;2023-01-24T20:30:24;19.37;;;10.90;;
17658;SDS011;8948;51.534;8.262;2023-01-24T20:35:24;23.77;;;13.17;;
17658;SDS011;8948;51.534;8.262;2023-01-24T20:40:26;24.37;;;14.80;;
17658;SDS011;8948;51.534;8.262;2023-01-24T20:45:27;22.90;;;14.13;;
17658;SDS011;8948;51.534;8.262;2023-01-24T20:50:28;24.17;;;14.43;;
17658;SDS011;8948;51.534;8.262;2023-01-24T20:55:28;23.77;;;13.63;;
17658;SDS011;8948;51.534;8.262;2023-01-24T21:00:29;26.10;;;14.63;;
17658;SDS011;8948;51.534;8.262;2023-01-24T21:05:30;23.30;;;13.77;;
17658;SDS011;8948;51.534;8.262;2023-01-24T21:10:34;19.77;;;11.50;;
17658;SDS011;8948;51.534;8.262;2023-01-24T21:15:34;24.93;;;13.87;;
17658;SDS011;8948;51.534;8.262;2023-01-24T21:20:35;23.77;;;14.03;;
17658;SDS011;8948;51.534;8.262;2023-01-24T21:25:35;25.00;;;14.40;;
17658;SDS011;8948;51.534;8.262;2023-01-24T21:30:36;25.13;;;15.30;;
17658;SDS011;8948;51.534;8.262;2023-01-24T21:35:37;20.83;;;12.60;;
17658;SDS011;8948;51.534;8.262;2023-01-24T21:40:37;24.40;;;13.23;;
17658;SDS011;8948;51.534;8.262;2023-01-24T21:45:56;24.37;;;14.57;;
17658;SDS011;8948;51.534;8.262;2023-01-24T21:50:59;20.90;;;12.37;;
17658;SDS011;8948;51.534;8.262;2023-01-24T21:56:00;21.73;;;13.53;;
17658;SDS011;8948;51.534;8.262;2023-01-24T22:01:21;22.83;;;14.17;;
17658;SDS011;8948;51.534;8.262;2023-01-24T22:06:21;26.17;;;15.27;;
17658;SDS011;8948;51.534;8.262;2023-01-24T22:11:22;26.17;;;15.40;;
17658;SDS011;8948;51.534;8.262;2023-01-24T22:16:22;25.07;;;14.57;;
17658;SDS011;8948;51.534;8.262;2023-01-24T22:21:43;23.27;;;14.27;;
17658;SDS011;8948;51.534;8.262;2023-01-24T22:27:02;21.03;;;12.87;;
17658;SDS011;8948;51.534;8.262;2023-01-24T22:32:04;22.27;;;13.37;;
17658;SDS011;8948;51.534;8.262;2023-01-24T22:42:28;23.70;;;14.13;;
17658;SDS011;8948;51.534;8.262;2023-01-24T22:47:28;24.40;;;14.03;;
17658;SDS011;8948;51.534;8.262;2023-01-24T22:52:29;16.53;;;11.00;;
17658;SDS011;8948;51.534;8.262;2023-01-24T22:57:30;19.53;;;11.60;;
17658;SDS011;8948;51.534;8.262;2023-01-24T23:02:30;23.07;;;14.20;;
17658;SDS011;8948;51.534;8.262;2023-01-24T23:07:31;23.83;;;14.47;;
17658;SDS011;8948;51.534;8.262;2023-01-24T23:12:32;25.50;;;15.20;;
17658;SDS011;8948;51.534;8.262;2023-01-24T23:18:11;22.37;;;12.93;;
17658;SDS011;8948;51.534;8.262;2023-01-24T23:23:18;20.23;;;12.87;;
17658;SDS011;8948;51.534;8.262;2023-01-24T23:28:18;25.90;;;15.00;;
17658;SDS011;8948;51.534;8.262;2023-01-24T23:38:30;20.13;;;12.37;;
17658;SDS011;8948;51.534;8.262;2023-01-24T23:43:31;23.27;;;13.10;;
17658;SDS011;8948;51.534;8.262;2023-01-24T23:48:32;25.47;;;14.10;;
17658;SDS011;8948;51.534;8.262;2023-01-24T23:53:32;23.73;;;14.13;;
17658;SDS011;8948;51.534;8.262;2023-01-24T23:58:33;19.33;;;11.97;;
